sensor_id;sensor_type;location;lat;lon;timestamp;pressure;altitude;pressure_sealevel;temperature;humidity
61906;BME280;47863;55.766;37.672;2023-02-02T00:01:11;98863.53;;;-0.65;84.98
61906;BME280;47863;55.766;37.672;2023-02-02T00:03:36;98843.91;;;-0.85;84.89
61906;BME280;47863;55.766;37.672;2023-02-02T00:06:02;98866.00;;;-0.75;84.95
61906;BME280;47863;55.766;37.672;2023-02-02T00:08:28;98888.41;;;-0.58;85.11
61906;BME280;47863;55.766;37.672;2023-02-02T00:10:54;98838.06;;;-0.89;84.87
61906;BME280;47863;55.766;37.672;2023-02-02T00:13:20;98887.69;;;-0.60;84.77
61906;BME280;47863;55.766;37.672;2023-02-02T00:15:45;98882.31;;;-0.58;84.88
61906;BME280;47863;55.766;37.672;2023-02-02T00:18:11;98881.69;;;-0.62;84.80
61906;BME280;47863;55.766;37.672;2023-02-02T00:20:36;98870.56;;;-0.66;85.03
61906;BME280;47863;55.766;37.672;2023-02-02T00:23:02;98855.88;;;-0.81;84.77
61906;BME280;47863;55.766;37.672;2023-02-02T00:25:29;98876.31;;;-0.61;84.77
61906;BME280;47863;55.766;37.672;2023-02-02T00:27:55;98873.06;;;-0.64;84.94
61906;BME280;47863;55.766;37.672;2023-02-02T00:30:20;98855.06;;;-0.82;84.83
61906;BME280;47863;55.766;37.672;2023-02-02T00:32:46;98857.47;;;-0.78;84.63
61906;BME280;47863;55.766;37.672;2023-02-02T00:35:14;98874.78;;;-0.63;84.90
61906;BME280;47863;55.766;37.672;2023-02-02T00:37:40;98876.53;;;-0.64;84.67
61906;BME280;47863;55.766;37.672;2023-02-02T00:40:07;98877.50;;;-0.65;84.92
61906;BME280;47863;55.766;37.672;2023-02-02T00:42:33;98874.53;;;-0.60;84.27
61906;BME280;47863;55.766;37.672;2023-02-02T00:44:58;98866.38;;;-0.68;84.16
61906;BME280;47863;55.766;37.672;2023-02-02T00:47:50;98880.25;;;-0.66;84.57
61906;BME280;47863;55.766;37.672;2023-02-02T00:50:19;98876.06;;;-0.69;84.55
61906;BME280;47863;55.766;37.672;2023-02-02T00:52:48;98881.31;;;-0.69;84.36
61906;BME280;47863;55.766;37.672;2023-02-02T00:55:15;98880.44;;;-0.69;84.32
61906;BME280;47863;55.766;37.672;2023-02-02T00:57:41;98871.00;;;-0.72;84.43
61906;BME280;47863;55.766;37.672;2023-02-02T01:00:13;98848.44;;;-0.87;84.21
61906;BME280;47863;55.766;37.672;2023-02-02T01:02:39;98872.91;;;-0.74;83.86
61906;BME280;47863;55.766;37.672;2023-02-02T01:05:05;98876.50;;;-0.75;83.86
61906;BME280;47863;55.766;37.672;2023-02-02T01:07:31;98857.41;;;-0.90;84.05
61906;BME280;47863;55.766;37.672;2023-02-02T01:09:56;98869.75;;;-0.79;83.79
61906;BME280;47863;55.766;37.672;2023-02-02T01:12:22;98863.56;;;-0.78;83.94
61906;BME280;47863;55.766;37.672;2023-02-02T01:14:48;98867.66;;;-0.74;83.77
61906;BME280;47863;55.766;37.672;2023-02-02T01:17:13;98857.97;;;-0.73;83.31
61906;BME280;47863;55.766;37.672;2023-02-02T01:19:39;98856.50;;;-0.77;83.50
61906;BME280;47863;55.766;37.672;2023-02-02T01:22:06;98826.41;;;-0.97;83.45
61906;BME280;47863;55.766;37.672;2023-02-02T01:24:32;98873.75;;;-0.73;82.84
61906;BME280;47863;55.766;37.672;2023-02-02T01:26:57;98850.63;;;-0.81;83.21
61906;BME280;47863;55.766;37.672;2023-02-02T01:29:23;98863.13;;;-0.72;82.42
61906;BME280;47863;55.766;37.672;2023-02-02T01:31:49;98866.56;;;-0.71;82.23
61906;BME280;47863;55.766;37.672;2023-02-02T01:34:15;98862.50;;;-0.75;81.92
61906;BME280;47863;55.766;37.672;2023-02-02T01:36:41;98858.31;;;-0.78;81.85
61906;BME280;47863;55.766;37.672;2023-02-02T01:39:06;98866.53;;;-0.83;81.79
61906;BME280;47863;55.766;37.672;2023-02-02T01:41:32;98827.59;;;-1.02;81.69
61906;BME280;47863;55.766;37.672;2023-02-02T01:44:00;98868.09;;;-0.80;80.86
61906;BME280;47863;55.766;37.672;2023-02-02T01:46:34;98849.41;;;-0.88;80.98
61906;BME280;47863;55.766;37.672;2023-02-02T01:49:16;98836.00;;;-0.96;81.29
61906;BME280;47863;55.766;37.672;2023-02-02T01:51:58;98808.41;;;-1.15;81.46
61906;BME280;47863;55.766;37.672;2023-02-02T01:54:30;98848.78;;;-0.92;81.67
61906;BME280;47863;55.766;37.672;2023-02-02T01:57:00;98803.66;;;-1.10;81.43
61906;BME280;47863;55.766;37.672;2023-02-02T01:59:28;98852.53;;;-0.83;81.37
61906;BME280;47863;55.766;37.672;2023-02-02T02:01:54;98833.13;;;-0.93;81.62
61906;BME280;47863;55.766;37.672;2023-02-02T02:04:21;98823.91;;;-0.99;81.25
61906;BME280;47863;55.766;37.672;2023-02-02T02:06:47;98856.97;;;-0.84;81.63
61906;BME280;47863;55.766;37.672;2023-02-02T02:09:13;98849.19;;;-0.85;81.74
61906;BME280;47863;55.766;37.672;2023-02-02T02:11:39;98863.91;;;-0.83;81.97
61906;BME280;47863;55.766;37.672;2023-02-02T02:14:07;98868.19;;;-0.82;81.80
61906;BME280;47863;55.766;37.672;2023-02-02T02:22:31;98865.50;;;-0.93;81.01
61906;BME280;47863;55.766;37.672;2023-02-02T02:41:27;98869.44;;;-0.98;81.01
61906;BME280;47863;55.766;37.672;2023-02-02T02:44:03;98859.78;;;-1.11;81.46
61906;BME280;47863;55.766;37.672;2023-02-02T02:46:30;98846.88;;;-1.14;80.67
61906;BME280;47863;55.766;37.672;2023-02-02T02:48:57;98849.50;;;-1.14;80.90
61906;BME280;47863;55.766;37.672;2023-02-02T02:51:48;98875.09;;;-0.92;80.38
61906;BME280;47863;55.766;37.672;2023-02-02T02:54:30;98888.44;;;-0.95;80.30
61906;BME280;47863;55.766;37.672;2023-02-02T03:02:53;98879.34;;;-1.02;79.58
61906;BME280;47863;55.766;37.672;2023-02-02T03:10:49;98881.69;;;-1.10;79.99
61906;BME280;47863;55.766;37.672;2023-02-02T03:13:16;98835.38;;;-1.37;78.88
61906;BME280;47863;55.766;37.672;2023-02-02T03:15:43;98871.25;;;-1.12;78.75
61906;BME280;47863;55.766;37.672;2023-02-02T03:18:11;98884.59;;;-1.15;79.33
61906;BME280;47863;55.766;37.672;2023-02-02T03:20:38;98880.41;;;-1.17;78.94
61906;BME280;47863;55.766;37.672;2023-02-02T03:23:04;98858.47;;;-1.29;79.07
61906;BME280;47863;55.766;37.672;2023-02-02T03:25:29;98888.94;;;-1.14;79.02
61906;BME280;47863;55.766;37.672;2023-02-02T03:27:55;98871.91;;;-1.21;79.00
61906;BME280;47863;55.766;37.672;2023-02-02T03:30:21;98843.50;;;-1.40;78.49
61906;BME280;47863;55.766;37.672;2023-02-02T03:32:48;98888.19;;;-1.16;79.08
61906;BME280;47863;55.766;37.672;2023-02-02T03:35:15;98846.94;;;-1.40;78.90
61906;BME280;47863;55.766;37.672;2023-02-02T03:37:41;98888.41;;;-1.19;78.86
61906;BME280;47863;55.766;37.672;2023-02-02T03:40:07;98876.34;;;-1.22;78.34
61906;BME280;47863;55.766;37.672;2023-02-02T03:42:33;98896.59;;;-1.11;78.05
61906;BME280;47863;55.766;37.672;2023-02-02T03:44:59;98858.91;;;-1.35;78.41
61906;BME280;47863;55.766;37.672;2023-02-02T03:47:27;98877.91;;;-1.19;78.18
61906;BME280;47863;55.766;37.672;2023-02-02T03:49:53;98869.97;;;-1.30;78.50
61906;BME280;47863;55.766;37.672;2023-02-02T03:52:18;98893.47;;;-1.16;78.41
61906;BME280;47863;55.766;37.672;2023-02-02T03:54:44;98869.53;;;-1.24;78.48
61906;BME280;47863;55.766;37.672;2023-02-02T03:57:09;98887.47;;;-1.18;78.86
61906;BME280;47863;55.766;37.672;2023-02-02T03:59:35;98898.72;;;-1.16;79.06
61906;BME280;47863;55.766;37.672;2023-02-02T04:02:00;98868.88;;;-1.28;79.52
61906;BME280;47863;55.766;37.672;2023-02-02T04:04:26;98868.66;;;-1.25;79.76
61906;BME280;47863;55.766;37.672;2023-02-02T04:06:52;98829.72;;;-1.44;79.46
61906;BME280;47863;55.766;37.672;2023-02-02T04:09:17;98898.56;;;-1.02;79.46
61906;BME280;47863;55.766;37.672;2023-02-02T04:11:43;98897.63;;;-1.01;79.71
61906;BME280;47863;55.766;37.672;2023-02-02T04:14:09;98892.38;;;-1.01;79.85
61906;BME280;47863;55.766;37.672;2023-02-02T04:16:34;98895.94;;;-1.02;79.69
61906;BME280;47863;55.766;37.672;2023-02-02T04:19:03;98901.09;;;-1.00;79.94
61906;BME280;47863;55.766;37.672;2023-02-02T04:21:29;98868.75;;;-1.13;79.82
61906;BME280;47863;55.766;37.672;2023-02-02T04:23:55;98893.59;;;-0.93;79.98
61906;BME280;47863;55.766;37.672;2023-02-02T04:26:21;98869.38;;;-1.10;80.17
61906;BME280;47863;55.766;37.672;2023-02-02T04:28:50;98890.97;;;-0.93;80.36
61906;BME280;47863;55.766;37.672;2023-02-02T04:31:15;98895.38;;;-0.94;80.29
61906;BME280;47863;55.766;37.672;2023-02-02T04:33:41;98898.13;;;-0.95;80.12
61906;BME280;47863;55.766;37.672;2023-02-02T04:36:07;98897.84;;;-1.04;80.60
61906;BME280;47863;55.766;37.672;2023-02-02T04:38:32;98914.22;;;-1.00;80.44
61906;BME280;47863;55.766;37.672;2023-02-02T04:41:04;98887.97;;;-1.13;80.83
61906;BME280;47863;55.766;37.672;2023-02-02T04:43:29;98905.81;;;-1.05;80.71
61906;BME280;47863;55.766;37.672;2023-02-02T04:45:55;98913.06;;;-1.09;80.93
61906;BME280;47863;55.766;37.672;2023-02-02T04:48:21;98905.81;;;-1.05;81.42
61906;BME280;47863;55.766;37.672;2023-02-02T04:50:46;98824.28;;;-1.53;81.03
61906;BME280;47863;55.766;37.672;2023-02-02T04:53:12;98905.31;;;-1.10;81.49
61906;BME280;47863;55.766;37.672;2023-02-02T04:55:37;98907.81;;;-1.09;81.54
61906;BME280;47863;55.766;37.672;2023-02-02T04:58:04;98914.03;;;-1.10;81.60
61906;BME280;47863;55.766;37.672;2023-02-02T05:00:30;98875.41;;;-1.33;81.39
61906;BME280;47863;55.766;37.672;2023-02-02T05:02:55;98902.06;;;-1.14;81.69
61906;BME280;47863;55.766;37.672;2023-02-02T05:05:21;98920.75;;;-1.06;81.49
61906;BME280;47863;55.766;37.672;2023-02-02T05:07:46;98920.03;;;-1.08;81.55
61906;BME280;47863;55.766;37.672;2023-02-02T05:10:12;98917.59;;;-1.11;81.56
61906;BME280;47863;55.766;37.672;2023-02-02T05:12:38;98915.22;;;-1.14;81.85
61906;BME280;47863;55.766;37.672;2023-02-02T05:15:04;98871.75;;;-1.44;81.66
61906;BME280;47863;55.766;37.672;2023-02-02T05:17:30;98929.91;;;-1.11;81.68
61906;BME280;47863;55.766;37.672;2023-02-02T05:19:56;98923.19;;;-1.15;81.66
61906;BME280;47863;55.766;37.672;2023-02-02T05:22:22;98878.19;;;-1.48;81.76
61906;BME280;47863;55.766;37.672;2023-02-02T05:24:47;98909.47;;;-1.32;81.53
61906;BME280;47863;55.766;37.672;2023-02-02T05:27:13;98925.00;;;-1.16;81.81
61906;BME280;47863;55.766;37.672;2023-02-02T05:29:38;98931.41;;;-1.20;81.69
61906;BME280;47863;55.766;37.672;2023-02-02T05:32:04;98921.72;;;-1.20;81.97
61906;BME280;47863;55.766;37.672;2023-02-02T05:34:29;98922.66;;;-1.21;81.81
61906;BME280;47863;55.766;37.672;2023-02-02T05:36:55;98938.22;;;-1.17;82.05
61906;BME280;47863;55.766;37.672;2023-02-02T05:39:20;98929.41;;;-1.16;82.18
61906;BME280;47863;55.766;37.672;2023-02-02T05:41:46;98914.91;;;-1.22;81.61
61906;BME280;47863;55.766;37.672;2023-02-02T05:44:14;98925.00;;;-1.16;81.78
61906;BME280;47863;55.766;37.672;2023-02-02T05:46:40;98931.28;;;-1.18;81.85
61906;BME280;47863;55.766;37.672;2023-02-02T05:49:07;98921.63;;;-1.18;81.71
61906;BME280;47863;55.766;37.672;2023-02-02T05:51:51;98910.94;;;-1.28;81.93
61906;BME280;47863;55.766;37.672;2023-02-02T05:54:19;98895.31;;;-1.42;81.80
61906;BME280;47863;55.766;37.672;2023-02-02T05:56:50;98930.56;;;-1.21;81.77
61906;BME280;47863;55.766;37.672;2023-02-02T05:59:17;98928.50;;;-1.28;81.64
61906;BME280;47863;55.766;37.672;2023-02-02T06:01:44;98905.69;;;-1.41;81.96
61906;BME280;47863;55.766;37.672;2023-02-02T06:04:10;98936.88;;;-1.23;82.04
61906;BME280;47863;55.766;37.672;2023-02-02T06:06:36;98934.47;;;-1.26;81.86
61906;BME280;47863;55.766;37.672;2023-02-02T06:09:04;98953.91;;;-1.16;81.76
61906;BME280;47863;55.766;37.672;2023-02-02T06:11:30;98949.38;;;-1.14;81.61
61906;BME280;47863;55.766;37.672;2023-02-02T06:13:55;98948.53;;;-1.27;81.61
61906;BME280;47863;55.766;37.672;2023-02-02T06:16:22;98955.13;;;-1.09;81.25
61906;BME280;47863;55.766;37.672;2023-02-02T06:18:48;98951.03;;;-1.13;81.47
61906;BME280;47863;55.766;37.672;2023-02-02T06:21:13;98910.00;;;-1.40;80.95
61906;BME280;47863;55.766;37.672;2023-02-02T06:23:39;98943.28;;;-1.14;81.19
61906;BME280;47863;55.766;37.672;2023-02-02T06:26:14;98957.56;;;-1.06;81.34
61906;BME280;47863;55.766;37.672;2023-02-02T06:28:40;98958.19;;;-1.02;81.21
61906;BME280;47863;55.766;37.672;2023-02-02T06:31:08;98966.19;;;-1.04;81.21
61906;BME280;47863;55.766;37.672;2023-02-02T06:33:35;98959.84;;;-1.01;80.95
61906;BME280;47863;55.766;37.672;2023-02-02T06:36:04;98960.47;;;-0.97;81.07
61906;BME280;47863;55.766;37.672;2023-02-02T06:38:30;98958.47;;;-0.94;80.88
61906;BME280;47863;55.766;37.672;2023-02-02T06:41:00;98956.78;;;-0.95;80.55
61906;BME280;47863;55.766;37.672;2023-02-02T06:43:27;98941.16;;;-0.96;80.22
61906;BME280;47863;55.766;37.672;2023-02-02T06:45:52;98927.72;;;-1.05;80.25
61906;BME280;47863;55.766;37.672;2023-02-02T06:48:18;98954.34;;;-0.85;80.46
61906;BME280;47863;55.766;37.672;2023-02-02T06:50:44;98940.41;;;-0.98;80.30
61906;BME280;47863;55.766;37.672;2023-02-02T06:53:09;98960.03;;;-0.78;80.26
61906;BME280;47863;55.766;37.672;2023-02-02T06:55:35;98952.97;;;-0.78;80.87
61906;BME280;47863;55.766;37.672;2023-02-02T06:58:01;98955.78;;;-0.68;80.78
61906;BME280;47863;55.766;37.672;2023-02-02T07:00:28;98965.34;;;-0.67;80.68
61906;BME280;47863;55.766;37.672;2023-02-02T07:02:54;98950.88;;;-0.73;80.56
61906;BME280;47863;55.766;37.672;2023-02-02T07:05:19;98951.97;;;-0.64;80.20
61906;BME280;47863;55.766;37.672;2023-02-02T07:07:49;98966.13;;;-0.54;80.18
61906;BME280;47863;55.766;37.672;2023-02-02T07:10:15;98958.59;;;-0.58;79.47
61906;BME280;47863;55.766;37.672;2023-02-02T07:12:40;98960.84;;;-0.65;79.64
61906;BME280;47863;55.766;37.672;2023-02-02T07:15:06;98974.38;;;-0.58;79.81
61906;BME280;47863;55.766;37.672;2023-02-02T07:17:32;98970.78;;;-0.57;79.60
61906;BME280;47863;55.766;37.672;2023-02-02T07:19:57;98957.78;;;-0.72;nan
61906;BME280;47863;55.766;37.672;2023-02-02T07:22:23;98945.19;;;-0.80;79.56
61906;BME280;47863;55.766;37.672;2023-02-02T07:24:49;98932.13;;;-0.81;79.61
61906;BME280;47863;55.766;37.672;2023-02-02T07:27:14;98957.13;;;-0.63;79.61
61906;BME280;47863;55.766;37.672;2023-02-02T07:29:40;98927.59;;;-0.79;79.70
61906;BME280;47863;55.766;37.672;2023-02-02T07:32:05;98968.56;;;-0.51;79.50
61906;BME280;47863;55.766;37.672;2023-02-02T07:34:31;98978.75;;;-0.46;79.84
61906;BME280;47863;55.766;37.672;2023-02-02T07:36:57;98979.72;;;-0.47;79.48
61906;BME280;47863;55.766;37.672;2023-02-02T07:39:22;98995.50;;;-0.47;79.59
61906;BME280;47863;55.766;37.672;2023-02-02T07:41:48;98986.16;;;-0.51;79.72
61906;BME280;47863;55.766;37.672;2023-02-02T07:44:14;98965.75;;;-0.61;79.88
61906;BME280;47863;55.766;37.672;2023-02-02T07:46:45;98954.44;;;-0.50;79.54
61906;BME280;47863;55.766;37.672;2023-02-02T07:49:16;98992.47;;;-0.30;79.13
61906;BME280;47863;55.766;37.672;2023-02-02T07:51:43;98997.31;;;-0.24;79.02
61906;BME280;47863;55.766;37.672;2023-02-02T07:54:09;98981.72;;;-0.27;78.94
61906;BME280;47863;55.766;37.672;2023-02-02T07:56:37;98976.19;;;-0.35;79.12
61906;BME280;47863;55.766;37.672;2023-02-02T07:59:03;98995.59;;;-0.25;78.89
61906;BME280;47863;55.766;37.672;2023-02-02T08:01:28;98990.25;;;-0.23;79.62
61906;BME280;47863;55.766;37.672;2023-02-02T08:03:55;98939.06;;;-0.43;79.48
61906;BME280;47863;55.766;37.672;2023-02-02T08:06:24;98982.50;;;-0.13;79.71
61906;BME280;47863;55.766;37.672;2023-02-02T08:08:51;98985.63;;;-0.08;79.44
61906;BME280;47863;55.766;37.672;2023-02-02T08:11:19;98944.81;;;-0.38;79.17
61906;BME280;47863;55.766;37.672;2023-02-02T08:13:59;98987.06;;;-0.04;78.55
61906;BME280;47863;55.766;37.672;2023-02-02T08:16:25;98971.13;;;-0.14;77.74
61906;BME280;47863;55.766;37.672;2023-02-02T08:18:51;98979.78;;;-0.12;78.23
61906;BME280;47863;55.766;37.672;2023-02-02T08:21:17;98971.53;;;-0.07;78.27
61906;BME280;47863;55.766;37.672;2023-02-02T08:23:43;98982.06;;;-0.07;77.32
61906;BME280;47863;55.766;37.672;2023-02-02T08:28:43;98975.66;;;-0.16;78.25
61906;BME280;47863;55.766;37.672;2023-02-02T08:31:10;98981.31;;;-0.09;78.07
61906;BME280;47863;55.766;37.672;2023-02-02T08:33:37;98992.13;;;-0.01;78.39
61906;BME280;47863;55.766;37.672;2023-02-02T08:36:03;98981.84;;;0.07;78.16
61906;BME280;47863;55.766;37.672;2023-02-02T08:38:29;98932.09;;;-0.20;77.64
61906;BME280;47863;55.766;37.672;2023-02-02T08:40:55;98985.47;;;0.17;77.55
61906;BME280;47863;55.766;37.672;2023-02-02T08:43:21;98973.03;;;0.08;77.40
61906;BME280;47863;55.766;37.672;2023-02-02T08:45:49;98990.25;;;0.12;76.89
61906;BME280;47863;55.766;37.672;2023-02-02T08:48:15;98985.16;;;-0.02;77.18
61906;BME280;47863;55.766;37.672;2023-02-02T08:50:41;98976.28;;;-0.12;77.32
61906;BME280;47863;55.766;37.672;2023-02-02T08:53:07;98981.81;;;-0.04;77.60
61906;BME280;47863;55.766;37.672;2023-02-02T08:55:32;98971.06;;;-0.01;77.66
61906;BME280;47863;55.766;37.672;2023-02-02T08:57:58;98988.56;;;0.11;77.20
61906;BME280;47863;55.766;37.672;2023-02-02T09:00:23;98981.19;;;0.16;77.66
61906;BME280;47863;55.766;37.672;2023-02-02T09:02:50;98940.09;;;0.03;77.37
61906;BME280;47863;55.766;37.672;2023-02-02T09:05:15;98985.78;;;0.37;77.37
61906;BME280;47863;55.766;37.672;2023-02-02T09:07:41;98979.81;;;0.46;77.23
61906;BME280;47863;55.766;37.672;2023-02-02T09:10:07;98969.03;;;0.49;77.62
61906;BME280;47863;55.766;37.672;2023-02-02T09:12:33;98968.31;;;0.58;76.94
61906;BME280;47863;55.766;37.672;2023-02-02T09:14:59;98982.47;;;0.69;76.74
61906;BME280;47863;55.766;37.672;2023-02-02T09:17:24;98981.66;;;0.79;75.60
61906;BME280;47863;55.766;37.672;2023-02-02T09:19:50;98973.88;;;0.89;75.79
61906;BME280;47863;55.766;37.672;2023-02-02T09:22:15;98963.06;;;1.15;76.11
61906;BME280;47863;55.766;37.672;2023-02-02T09:24:41;98966.16;;;1.31;74.76
61906;BME280;47863;55.766;37.672;2023-02-02T09:27:07;98947.75;;;1.09;74.49
61906;BME280;47863;55.766;37.672;2023-02-02T09:29:32;98982.84;;;1.09;74.03
61906;BME280;47863;55.766;37.672;2023-02-02T09:31:58;98971.00;;;1.04;74.47
61906;BME280;47863;55.766;37.672;2023-02-02T09:34:23;98976.88;;;1.18;74.27
61906;BME280;47863;55.766;37.672;2023-02-02T09:36:49;98959.19;;;1.30;74.22
61906;BME280;47863;55.766;37.672;2023-02-02T09:39:14;98985.22;;;1.90;72.33
61906;BME280;47863;55.766;37.672;2023-02-02T09:44:49;98974.75;;;2.93;70.94
61906;BME280;47863;55.766;37.672;2023-02-02T09:52:45;98939.41;;;4.89;66.76
61906;BME280;47863;55.766;37.672;2023-02-02T10:01:03;98954.56;;;5.34;66.02
61906;BME280;47863;55.766;37.672;2023-02-02T10:04:14;98959.97;;;4.77;62.20
61906;BME280;47863;55.766;37.672;2023-02-02T10:06:42;98925.06;;;4.25;64.70
61906;BME280;47863;55.766;37.672;2023-02-02T10:14:41;98957.56;;;3.88;63.92
61906;BME280;47863;55.766;37.672;2023-02-02T10:22:49;98957.53;;;2.99;65.52
61906;BME280;47863;55.766;37.672;2023-02-02T10:25:15;98954.22;;;2.76;66.25
61906;BME280;47863;55.766;37.672;2023-02-02T10:27:47;98942.53;;;2.48;65.81
61906;BME280;47863;55.766;37.672;2023-02-02T10:30:19;98943.44;;;2.16;66.48
61906;BME280;47863;55.766;37.672;2023-02-02T10:44:01;98947.66;;;2.07;66.26
61906;BME280;47863;55.766;37.672;2023-02-02T10:46:37;98938.75;;;2.20;67.29
61906;BME280;47863;55.766;37.672;2023-02-02T10:49:13;98949.97;;;2.64;66.37
61906;BME280;47863;55.766;37.672;2023-02-02T10:51:40;98949.84;;;2.96;65.41
61906;BME280;47863;55.766;37.672;2023-02-02T10:54:34;98939.09;;;3.28;63.98
61906;BME280;47863;55.766;37.672;2023-02-02T10:57:03;98936.75;;;3.45;62.97
61906;BME280;47863;55.766;37.672;2023-02-02T10:59:37;98936.66;;;3.56;62.62
61906;BME280;47863;55.766;37.672;2023-02-02T11:02:11;98911.44;;;3.62;62.96
61906;BME280;47863;55.766;37.672;2023-02-02T11:04:37;98930.25;;;3.88;63.66
61906;BME280;47863;55.766;37.672;2023-02-02T11:07:21;98920.06;;;3.93;63.95
61906;BME280;47863;55.766;37.672;2023-02-02T11:09:47;98936.50;;;4.16;64.48
61906;BME280;47863;55.766;37.672;2023-02-02T11:12:33;98858.59;;;3.89;62.16
61906;BME280;47863;55.766;37.672;2023-02-02T11:15:26;98932.59;;;4.30;62.92
61906;BME280;47863;55.766;37.672;2023-02-02T11:17:51;98934.41;;;4.20;62.79
61906;BME280;47863;55.766;37.672;2023-02-02T11:20:35;98919.53;;;3.99;61.57
61906;BME280;47863;55.766;37.672;2023-02-02T11:23:04;98917.94;;;4.26;62.26
61906;BME280;47863;55.766;37.672;2023-02-02T11:25:38;98909.50;;;4.50;61.54
61906;BME280;47863;55.766;37.672;2023-02-02T11:28:18;98938.75;;;4.68;60.72
61906;BME280;47863;55.766;37.672;2023-02-02T11:30:47;98952.53;;;4.34;60.00
61906;BME280;47863;55.766;37.672;2023-02-02T11:33:30;98948.78;;;3.88;60.99
61906;BME280;47863;55.766;37.672;2023-02-02T11:36:33;98960.44;;;3.36;61.02
61906;BME280;47863;55.766;37.672;2023-02-02T11:39:14;98957.66;;;2.97;62.28
61906;BME280;47863;55.766;37.672;2023-02-02T11:41:40;98961.00;;;2.69;62.13
61906;BME280;47863;55.766;37.672;2023-02-02T11:44:32;98972.38;;;2.38;62.85
61906;BME280;47863;55.766;37.672;2023-02-02T11:46:59;98960.81;;;2.18;63.18
61906;BME280;47863;55.766;37.672;2023-02-02T11:49:25;98915.22;;;1.63;63.99
61906;BME280;47863;55.766;37.672;2023-02-02T11:52:02;98963.59;;;1.96;63.93
61906;BME280;47863;55.766;37.672;2023-02-02T11:54:36;98953.28;;;1.82;63.95
61906;BME280;47863;55.766;37.672;2023-02-02T11:57:06;98937.75;;;1.35;64.38
61906;BME280;47863;55.766;37.672;2023-02-02T11:59:35;98964.25;;;1.33;64.96
61906;BME280;47863;55.766;37.672;2023-02-02T12:02:28;98963.31;;;1.12;65.52
61906;BME280;47863;55.766;37.672;2023-02-02T12:07:37;98977.81;;;0.84;66.93
61906;BME280;47863;55.766;37.672;2023-02-02T12:17:46;98975.66;;;1.00;67.30
61906;BME280;47863;55.766;37.672;2023-02-02T12:23:18;98966.88;;;1.33;67.53
61906;BME280;47863;55.766;37.672;2023-02-02T12:31:20;98958.06;;;2.20;66.03
61906;BME280;47863;55.766;37.672;2023-02-02T12:34:10;98945.09;;;1.96;66.00
61906;BME280;47863;55.766;37.672;2023-02-02T12:52:58;98984.66;;;0.86;68.05
61906;BME280;47863;55.766;37.672;2023-02-02T12:55:28;98973.97;;;0.76;67.75
61906;BME280;47863;55.766;37.672;2023-02-02T12:58:26;98984.38;;;0.67;68.30
61906;BME280;47863;55.766;37.672;2023-02-02T13:01:19;98978.97;;;0.57;68.65
61906;BME280;47863;55.766;37.672;2023-02-02T13:04:12;98974.28;;;0.49;68.69
61906;BME280;47863;55.766;37.672;2023-02-02T13:09:34;98958.34;;;0.28;69.60
61906;BME280;47863;55.766;37.672;2023-02-02T13:12:08;98982.41;;;0.35;69.45
61906;BME280;47863;55.766;37.672;2023-02-02T13:14:39;98973.69;;;0.34;69.90
61906;BME280;47863;55.766;37.672;2023-02-02T13:17:12;98952.69;;;0.22;70.23
61906;BME280;47863;55.766;37.672;2023-02-02T13:19:47;98968.16;;;0.26;70.08
61906;BME280;47863;55.766;37.672;2023-02-02T13:22:42;98977.50;;;0.30;70.52
61906;BME280;47863;55.766;37.672;2023-02-02T13:25:18;98978.44;;;0.29;70.64
61906;BME280;47863;55.766;37.672;2023-02-02T13:27:47;98976.44;;;0.33;70.26
61906;BME280;47863;55.766;37.672;2023-02-02T13:30:26;98880.03;;;-0.28;70.44
61906;BME280;47863;55.766;37.672;2023-02-02T13:33:01;98980.03;;;0.32;70.90
61906;BME280;47863;55.766;37.672;2023-02-02T13:38:21;98971.63;;;0.27;70.75
61906;BME280;47863;55.766;37.672;2023-02-02T13:40:47;98968.16;;;0.26;71.15
61906;BME280;47863;55.766;37.672;2023-02-02T13:49:31;98977.09;;;0.24;71.50
61906;BME280;47863;55.766;37.672;2023-02-02T13:52:32;98979.03;;;0.22;71.33
61906;BME280;47863;55.766;37.672;2023-02-02T13:55:29;98984.44;;;0.20;71.46
61906;BME280;47863;55.766;37.672;2023-02-02T14:00:55;98991.19;;;0.11;71.74
61906;BME280;47863;55.766;37.672;2023-02-02T14:03:34;99000.69;;;0.14;72.30
61906;BME280;47863;55.766;37.672;2023-02-02T14:06:15;98998.28;;;0.11;72.13
61906;BME280;47863;55.766;37.672;2023-02-02T14:11:20;98998.84;;;0.03;72.98
61906;BME280;47863;55.766;37.672;2023-02-02T14:13:49;98972.03;;;-0.26;73.49
61906;BME280;47863;55.766;37.672;2023-02-02T14:19:04;98967.78;;;-0.40;74.12
61906;BME280;47863;55.766;37.672;2023-02-02T14:24:48;99004.34;;;-0.24;74.15
61906;BME280;47863;55.766;37.672;2023-02-02T14:29:34;99015.38;;;-0.19;74.76
61906;BME280;47863;55.766;37.672;2023-02-02T14:34:59;99017.19;;;-0.19;74.80
61906;BME280;47863;55.766;37.672;2023-02-02T14:45:42;99009.03;;;-0.16;74.70
61906;BME280;47863;55.766;37.672;2023-02-02T14:48:11;99034.34;;;-0.03;74.59
61906;BME280;47863;55.766;37.672;2023-02-02T14:50:51;99028.66;;;-0.21;74.62
61906;BME280;47863;55.766;37.672;2023-02-02T14:53:30;99036.81;;;-0.12;74.58
61906;BME280;47863;55.766;37.672;2023-02-02T14:56:11;99044.97;;;-0.15;74.78
61906;BME280;47863;55.766;37.672;2023-02-02T14:58:41;99035.16;;;-0.13;74.72
61906;BME280;47863;55.766;37.672;2023-02-02T15:06:31;99041.69;;;-0.19;74.86
61906;BME280;47863;55.766;37.672;2023-02-02T15:17:25;99047.16;;;-0.22;75.39
61906;BME280;47863;55.766;37.672;2023-02-02T15:22:54;99034.25;;;-0.25;75.53
61906;BME280;47863;55.766;37.672;2023-02-02T15:25:26;99014.69;;;-0.34;75.26
61906;BME280;47863;55.766;37.672;2023-02-02T15:30:50;99045.06;;;-0.17;75.63
61906;BME280;47863;55.766;37.672;2023-02-02T15:33:27;99046.13;;;-0.19;75.59
61906;BME280;47863;55.766;37.672;2023-02-02T15:35:56;99010.84;;;-0.41;75.67
61906;BME280;47863;55.766;37.672;2023-02-02T15:38:30;99052.34;;;-0.21;75.48
61906;BME280;47863;55.766;37.672;2023-02-02T15:41:03;99047.63;;;-0.28;75.64
61906;BME280;47863;55.766;37.672;2023-02-02T15:43:30;99051.41;;;-0.19;75.53
61906;BME280;47863;55.766;37.672;2023-02-02T15:46:05;99003.59;;;-0.50;75.59
61906;BME280;47863;55.766;37.672;2023-02-02T15:48:31;99001.31;;;-0.55;75.77